Time;durP1;ratioP1;P1;durP2;ratioP2;P2;SDS_P1;SDS_P2;PMS_P1;PMS_P2;Temp;Humidity;BMP_temperature;BMP_pressure;BME280_temperature;BME280_humidity;BME280_pressure;Samples;Min_cycle;Max_cycle;Signal;HPM_P1;HPM_P2
2023/03/03 11:29:34;;;;;;;24.02;12.43;;;;;;;;;;5134792;27;20411;-49
2023/03/03 11:32:21;;;;;;;20.77;11.98;;;;;;;;;;5088343;28;20028;-52
2023/03/03 11:34:46;;;;;;;25.25;14.35;;;;;;;;;;5091699;28;20028;-48
2023/03/03 11:37:15;;;;;;;29.60;15.15;;;;;;;;;;5087419;28;20020;-52
2023/03/03 11:39:42;;;;;;;27.05;13.82;;;;;;;;;;5090448;28;20126;-50
2023/03/03 11:42:15;;;;;;;24.95;12.90;;;;;;;;;;5092491;28;20120;-51
2023/03/03 11:44:43;;;;;;;26.23;14.07;;;;;;;;;;5072153;28;20044;-50
2023/03/03 11:47:27;;;;;;;22.92;12.80;;;;;;;;;;5067949;28;20012;-53
2023/03/03 11:49:56;;;;;;;31.20;15.55;;;;;;;;;;5086793;28;20055;-50
2023/03/03 11:52:28;;;;;;;24.42;14.05;;;;;;;;;;5092883;28;20035;-57
2023/03/03 11:54:55;;;;;;;27.98;14.57;;;;;;;;;;5083278;28;20032;-49
2023/03/03 11:57:39;;;;;;;25.88;14.98;;;;;;;;;;5084977;28;20370;-46
2023/03/03 12:00:23;;;;;;;26.83;13.45;;;;;;;;;;5088661;28;20492;-51
2023/03/03 12:02:51;;;;;;;23.65;12.40;;;;;;;;;;5082911;28;20040;-50
2023/03/03 12:05:26;;;;;;;22.13;11.88;;;;;;;;;;5084987;28;20073;-50
2023/03/03 12:07:56;;;;;;;79.22;42.67;;;;;;;;;;5080699;28;20036;-52
2023/03/03 12:12:19;;;;;;;26.38;13.18;;;;;;;;;;5053734;28;20380;-54
2023/03/03 12:14:52;;;;;;;25.80;12.07;;;;;;;;;;5034628;28;20195;-53
2023/03/03 12:17:28;;;;;;;22.25;11.40;;;;;;;;;;5034440;28;20021;-54
2023/03/03 12:19:59;;;;;;;23.05;11.98;;;;;;;;;;5039906;28;20037;-50
2023/03/03 12:22:43;;;;;;;22.40;12.13;;;;;;;;;;5037120;28;22114;-54
2023/03/03 12:25:21;;;;;;;22.52;12.18;;;;;;;;;;5021936;28;20435;-55
2023/03/03 12:27:53;;;;;;;24.77;12.65;;;;;;;;;;5032164;28;20029;-53
2023/03/03 12:30:27;;;;;;;23.02;13.40;;;;;;;;;;5036416;28;20033;-55
2023/03/03 12:33:11;;;;;;;31.73;16.27;;;;;;;;;;5021067;28;20057;-55
2023/03/03 12:35:53;;;;;;;23.38;11.80;;;;;;;;;;5039154;28;20029;-52
2023/03/03 12:38:18;;;;;;;26.50;11.82;;;;;;;;;;5041757;28;20092;-53
2023/03/03 12:41:02;;;;;;;25.50;11.10;;;;;;;;;;5038136;28;20033;-54
2023/03/03 12:43:38;;;;;;;25.70;11.50;;;;;;;;;;5029943;28;20824;-50
2023/03/03 12:46:18;;;;;;;21.52;12.00;;;;;;;;;;5040900;28;20032;-53
2023/03/03 12:48:44;;;;;;;20.33;11.05;;;;;;;;;;5031493;28;20045;-53
2023/03/03 12:51:28;;;;;;;16.83;10.20;;;;;;;;;;5009243;28;20045;-49
2023/03/03 12:54:13;;;;;;;21.98;11.63;;;;;;;;;;5061515;28;20045;-51
2023/03/03 12:56:47;;;;;;;19.63;11.30;;;;;;;;;;5065211;28;20115;-54
2023/03/03 12:59:12;;;;;;;31.13;14.43;;;;;;;;;;5065524;28;20054;-53
2023/03/03 13:01:44;;;;;;;31.57;12.90;;;;;;;;;;5057689;28;20128;-51
2023/03/03 13:04:27;;;;;;;34.90;12.23;;;;;;;;;;5065099;28;20586;-52
2023/03/03 13:07:12;;;;;;;26.63;13.50;;;;;;;;;;5056876;28;20021;-52
2023/03/03 13:09:49;;;;;;;21.67;10.93;;;;;;;;;;5057505;28;20037;-51
2023/03/03 13:12:14;;;;;;;22.40;11.77;;;;;;;;;;5082906;28;20020;-54
2023/03/03 13:14:46;;;;;;;20.73;11.60;;;;;;;;;;5080112;28;20086;-56
2023/03/03 13:17:18;;;;;;;24.75;11.13;;;;;;;;;;5062541;28;20025;-54
2023/03/03 13:20:02;;;;;;;25.38;13.13;;;;;;;;;;5063206;28;20067;-51
2023/03/03 13:22:36;;;;;;;26.00;13.93;;;;;;;;;;5062735;28;20048;-54
2023/03/03 13:25:19;;;;;;;26.67;14.23;;;;;;;;;;5056353;28;20090;-50
2023/03/03 13:27:46;;;;;;;32.95;16.15;;;;;;;;;;5054530;28;20103;-52
2023/03/03 13:30:14;;;;;;;30.00;14.55;;;;;;;;;;5066633;28;20028;-51
2023/03/03 13:32:46;;;;;;;34.88;14.32;;;;;;;;;;5055513;28;20033;-50
2023/03/03 13:35:14;;;;;;;26.92;13.73;;;;;;;;;;5063845;28;20036;-49
2023/03/03 13:37:40;;;;;;;39.20;14.55;;;;;;;;;;5038362;28;20052;-52
2023/03/03 13:40:16;;;;;;;63.10;57.08;;;;;;;;;;5041354;28;20061;-50
2023/03/03 13:42:47;;;;;;;48.08;21.27;;;;;;;;;;5037239;28;20025;-54
2023/03/03 13:45:34;;;;;;;358.73;209.18;;;;;;;;;;5038685;28;20021;-52
2023/03/03 13:47:59;;;;;;;101.50;45.30;;;;;;;;;;5032713;28;20032;-55
2023/03/03 13:50:30;;;;;;;29.35;15.07;;;;;;;;;;5040771;28;20034;-51
2023/03/03 13:53:47;;;;;;;25.55;14.13;;;;;;;;;;5044985;28;20377;-50
2023/03/03 13:56:31;;;;;;;31.88;14.00;;;;;;;;;;5038223;28;20501;-47
2023/03/03 13:59:14;;;;;;;27.83;15.07;;;;;;;;;;5045054;28;20021;-52
2023/03/03 14:01:57;;;;;;;31.90;15.40;;;;;;;;;;5043483;28;20142;-53
2023/03/03 14:04:26;;;;;;;25.65;14.02;;;;;;;;;;5044940;28;20017;-51
2023/03/03 14:06:54;;;;;;;28.35;13.75;;;;;;;;;;5044268;28;20448;-51
2023/03/03 14:09:28;;;;;;;32.28;14.82;;;;;;;;;;5039133;28;20033;-53
2023/03/03 14:11:53;;;;;;;43.28;20.08;;;;;;;;;;5040350;28;20025;-52
2023/03/03 14:14:28;;;;;;;28.70;15.10;;;;;;;;;;5039080;28;20048;-51
2023/03/03 14:16:56;;;;;;;28.50;16.08;;;;;;;;;;5055010;28;20048;-52
2023/03/03 14:19:31;;;;;;;21.38;12.10;;;;;;;;;;5033711;28;20061;-49
2023/03/03 14:22:04;;;;;;;21.88;12.02;;;;;;;;;;5040297;28;20049;-50
2023/03/03 14:24:29;;;;;;;20.80;11.05;;;;;;;;;;5036973;28;20032;-51
2023/03/03 14:26:56;;;;;;;24.95;12.18;;;;;;;;;;5034276;28;20029;-50
2023/03/03 14:29:27;;;;;;;20.63;10.43;;;;;;;;;;5039572;28;20025;-52
2023/03/03 14:31:57;;;;;;;27.25;12.40;;;;;;;;;;5040586;28;20032;-54
2023/03/03 14:34:22;;;;;;;36.38;16.30;;;;;;;;;;5043376;28;20514;-50
2023/03/03 14:36:48;;;;;;;28.52;16.05;;;;;;;;;;5037904;28;20038;-53
2023/03/03 14:39:26;;;;;;;29.55;16.58;;;;;;;;;;5037053;28;20618;-50
2023/03/03 14:41:52;;;;;;;43.53;20.52;;;;;;;;;;5042521;28;20487;-49
2023/03/03 14:44:17;;;;;;;37.03;19.45;;;;;;;;;;5024530;28;20076;-52
2023/03/03 14:46:43;;;;;;;34.75;20.02;;;;;;;;;;5024368;28;20100;-49
2023/03/03 14:49:28;;;;;;;43.45;21.25;;;;;;;;;;5022836;28;20029;-53
2023/03/03 14:51:59;;;;;;;35.72;19.02;;;;;;;;;;5024008;28;20377;-50
2023/03/03 14:54:33;;;;;;;33.05;17.67;;;;;;;;;;5024248;28;20052;-49
2023/03/03 14:57:06;;;;;;;35.17;18.20;;;;;;;;;;5024090;28;20548;-52
2023/03/03 14:59:31;;;;;;;38.70;18.83;;;;;;;;;;5024087;28;20029;-47
2023/03/03 15:02:06;;;;;;;43.75;19.33;;;;;;;;;;5024054;28;20141;-50
2023/03/03 15:04:31;;;;;;;39.97;20.73;;;;;;;;;;5014548;28;20018;-52
2023/03/03 15:06:57;;;;;;;39.95;21.42;;;;;;;;;;5010991;28;20377;-53
2023/03/03 15:09:26;;;;;;;38.88;19.67;;;;;;;;;;5010752;28;20033;-50
2023/03/03 15:11:52;;;;;;;34.83;20.37;;;;;;;;;;5010685;28;20049;-51
2023/03/03 15:14:18;;;;;;;36.60;20.42;;;;;;;;;;5010169;28;20492;-52
2023/03/03 15:16:44;;;;;;;39.22;20.50;;;;;;;;;;5009858;28;20029;-49
2023/03/03 15:19:15;;;;;;;42.92;21.10;;;;;;;;;;5009797;28;20022;-48
2023/03/03 15:21:47;;;;;;;43.53;21.67;;;;;;;;;;5010207;28;20057;-52
2023/03/03 15:24:18;;;;;;;43.50;22.40;;;;;;;;;;5010110;28;20304;-52
2023/03/03 15:26:50;;;;;;;42.28;22.73;;;;;;;;;;5024015;28;20033;-50
2023/03/03 15:29:20;;;;;;;44.53;22.20;;;;;;;;;;5012351;28;20464;-50
2023/03/03 15:31:54;;;;;;;41.40;21.55;;;;;;;;;;5043747;28;20435;-54
2023/03/03 15:34:35;;;;;;;45.72;22.77;;;;;;;;;;5030409;28;20033;-53
2023/03/03 15:37:23;;;;;;;49.33;22.40;;;;;;;;;;5030187;28;20029;-50
2023/03/03 15:39:57;;;;;;;40.58;22.25;;;;;;;;;;5029589;28;20086;-51
2023/03/03 15:42:34;;;;;;;43.20;22.42;;;;;;;;;;5030018;28;20025;-53
2023/03/03 15:45:22;;;;;;;52.45;24.10;;;;;;;;;;5030050;28;20369;-55
2023/03/03 15:48:07;;;;;;;43.67;23.00;;;;;;;;;;4987651;28;20036;-51
2023/03/03 15:50:32;;;;;;;58.72;30.10;;;;;;;;;;4987849;28;20018;-55
2023/03/03 15:52:57;;;;;;;51.28;24.55;;;;;;;;;;4987373;28;20104;-49
2023/03/03 15:55:25;;;;;;;48.75;25.25;;;;;;;;;;4987618;28;20066;-50
2023/03/03 15:57:53;;;;;;;67.22;29.70;;;;;;;;;;4987852;28;20035;-52
2023/03/03 16:00:37;;;;;;;54.78;24.50;;;;;;;;;;4987495;28;20386;-47
2023/03/03 16:03:21;;;;;;;48.00;23.55;;;;;;;;;;4986833;28;20026;-51
2023/03/03 16:05:55;;;;;;;47.92;23.90;;;;;;;;;;4986686;28;20118;-52
2023/03/03 16:08:26;;;;;;;48.00;23.20;;;;;;;;;;4986925;28;20033;-48
2023/03/03 16:11:11;;;;;;;58.30;28.13;;;;;;;;;;4986666;28;20022;-50
2023/03/03 16:13:45;;;;;;;70.10;31.27;;;;;;;;;;4986107;28;20046;-52
2023/03/03 16:16:31;;;;;;;66.88;29.70;;;;;;;;;;4986593;28;20022;-48
2023/03/03 16:18:57;;;;;;;124.72;48.30;;;;;;;;;;4986696;28;20030;-49
2023/03/03 16:21:48;;;;;;;72.70;32.88;;;;;;;;;;4986993;28;20377;-50
2023/03/03 16:24:30;;;;;;;74.53;30.35;;;;;;;;;;4997751;28;20045;-49
2023/03/03 16:27:03;;;;;;;56.05;29.67;;;;;;;;;;5029049;28;20029;-50
2023/03/03 16:29:51;;;;;;;54.67;27.00;;;;;;;;;;5028884;28;20053;-51
2023/03/03 16:32:23;;;;;;;53.95;24.60;;;;;;;;;;5028798;28;20163;-50
2023/03/03 16:35:15;;;;;;;58.88;25.42;;;;;;;;;;5028917;28;20026;-50
2023/03/03 16:37:49;;;;;;;47.88;24.38;;;;;;;;;;5026699;28;20049;-53
2023/03/03 16:40:41;;;;;;;53.90;24.35;;;;;;;;;;5028910;28;20021;-51
2023/03/03 16:43:09;;;;;;;67.40;29.48;;;;;;;;;;4986368;28;20065;-50
2023/03/03 16:45:36;;;;;;;80.20;32.25;;;;;;;;;;4986758;28;20045;-53
2023/03/03 16:48:08;;;;;;;84.85;33.75;;;;;;;;;;4986728;28;20080;-51
2023/03/03 16:50:51;;;;;;;92.10;34.95;;;;;;;;;;4986688;28;20045;-54
2023/03/03 16:53:29;;;;;;;82.72;33.22;;;;;;;;;;4986243;28;20509;-52
2023/03/03 16:56:02;;;;;;;92.60;36.95;;;;;;;;;;4986783;28;20511;-50
2023/03/03 16:58:46;;;;;;;95.38;39.80;;;;;;;;;;4986621;28;20489;-49
2023/03/03 17:01:28;;;;;;;84.13;35.80;;;;;;;;;;4986516;28;20073;-49
2023/03/03 17:03:56;;;;;;;77.32;35.53;;;;;;;;;;4986510;28;20120;-52
2023/03/03 17:06:27;;;;;;;81.07;34.22;;;;;;;;;;4986636;28;20129;-50
2023/03/03 17:09:04;;;;;;;86.03;33.67;;;;;;;;;;4986204;28;20501;-48
2023/03/03 17:11:48;;;;;;;77.53;33.10;;;;;;;;;;4986216;28;20085;-52
2023/03/03 17:14:22;;;;;;;86.32;32.88;;;;;;;;;;4986199;28;20070;-51
2023/03/03 17:16:53;;;;;;;94.07;37.70;;;;;;;;;;4986298;28;20108;-51
2023/03/03 17:19:38;;;;;;;91.53;38.05;;;;;;;;;;4996086;28;20037;-48
2023/03/03 17:22:04;;;;;;;95.07;38.05;;;;;;;;;;5028354;28;20056;-53
2023/03/03 17:24:38;;;;;;;104.05;39.55;;;;;;;;;;5026816;28;20053;-52
2023/03/03 17:27:10;;;;;;;99.28;39.58;;;;;;;;;;5027799;28;20041;-47
2023/03/03 17:29:44;;;;;;;92.50;38.83;;;;;;;;;;5027981;28;20076;-51
2023/03/03 17:32:15;;;;;;;101.10;42.85;;;;;;;;;;5028053;28;20033;-51
2023/03/03 17:34:53;;;;;;;121.22;48.03;;;;;;;;;;5028111;28;20033;-48
2023/03/03 17:37:19;;;;;;;111.63;50.15;;;;;;;;;;5027976;28;20033;-47
2023/03/03 17:40:03;;;;;;;106.10;42.85;;;;;;;;;;5027888;28;20029;-49
2023/03/03 17:42:42;;;;;;;102.88;41.83;;;;;;;;;;5027060;28;20112;-46
2023/03/03 17:45:07;;;;;;;107.90;43.43;;;;;;;;;;5027029;28;20032;-49
2023/03/03 17:47:56;;;;;;;106.38;41.03;;;;;;;;;;5044772;28;20021;-51
2023/03/03 17:50:30;;;;;;;107.63;44.58;;;;;;;;;;5045127;28;20125;-48
2023/03/03 17:53:27;;;;;;;145.05;54.80;;;;;;;;;;5044640;28;20049;-50
2023/03/03 17:56:11;;;;;;;133.40;54.95;;;;;;;;;;4947067;29;20269;-50
2023/03/03 17:58:43;;;;;;;116.13;48.22;;;;;;;;;;4947255;29;20474;-50
2023/03/03 18:01:09;;;;;;;113.45;46.10;;;;;;;;;;4947316;29;20155;-48
2023/03/03 18:03:45;;;;;;;114.35;48.78;;;;;;;;;;4946505;29;20066;-47
2023/03/03 18:06:16;;;;;;;144.13;56.60;;;;;;;;;;4946460;29;20035;-47
2023/03/03 18:09:03;;;;;;;131.50;51.42;;;;;;;;;;4946611;29;20679;-49
2023/03/03 18:11:35;;;;;;;133.88;53.75;;;;;;;;;;4946205;29;20072;-51
2023/03/03 18:14:00;;;;;;;115.45;51.75;;;;;;;;;;4914478;29;20031;-48
2023/03/03 18:16:34;;;;;;;140.98;55.53;;;;;;;;;;4946238;29;20534;-49
2023/03/03 18:19:18;;;;;;;156.30;56.15;;;;;;;;;;4945671;29;20034;-52
2023/03/03 18:21:47;;;;;;;147.65;55.53;;;;;;;;;;4945900;29;20090;-49
2023/03/03 18:24:32;;;;;;;150.03;57.43;;;;;;;;;;4946365;29;20067;-47
2023/03/03 18:27:30;;;;;;;146.98;55.75;;;;;;;;;;4927281;29;20027;-48
2023/03/03 18:30:14;;;;;;;171.82;59.03;;;;;;;;;;4870551;29;20088;-49
2023/03/03 18:32:55;;;;;;;171.55;61.42;;;;;;;;;;4907401;29;20055;-51
2023/03/03 18:35:22;;;;;;;181.82;63.30;;;;;;;;;;4908758;29;20107;-49
2023/03/03 18:37:48;;;;;;;183.27;68.30;;;;;;;;;;4909020;29;20040;-51
2023/03/03 18:40:31;;;;;;;171.02;65.60;;;;;;;;;;4896308;29;20448;-52
2023/03/03 18:43:35;;;;;;;181.52;66.18;;;;;;;;;;4911217;29;20032;-48
2023/03/03 18:46:00;;;;;;;182.25;66.78;;;;;;;;;;4911329;29;20032;-50
2023/03/03 18:48:44;;;;;;;184.75;69.88;;;;;;;;;;4912138;29;20119;-47
2023/03/03 18:51:10;;;;;;;162.90;60.95;;;;;;;;;;4912122;29;20038;-54
2023/03/03 18:53:36;;;;;;;138.43;55.08;;;;;;;;;;4911820;29;20052;-52
2023/03/03 18:56:02;;;;;;;160.93;57.03;;;;;;;;;;4912133;29;20044;-50
2023/03/03 18:58:30;;;;;;;146.07;55.13;;;;;;;;;;4912244;29;20878;-50
2023/03/03 19:01:25;;;;;;;150.35;53.65;;;;;;;;;;4911859;29;20373;-55
2023/03/03 19:03:50;;;;;;;145.02;51.92;;;;;;;;;;4828849;29;20037;-52
2023/03/03 19:06:48;;;;;;;155.07;54.25;;;;;;;;;;4900369;29;20115;-49
2023/03/03 19:09:19;;;;;;;133.75;48.78;;;;;;;;;;4911668;29;20035;-49
2023/03/03 19:11:53;;;;;;;133.77;46.83;;;;;;;;;;4911608;29;20036;-48
2023/03/03 19:14:19;;;;;;;121.80;45.17;;;;;;;;;;4910933;29;20073;-48
2023/03/03 19:16:45;;;;;;;130.48;46.25;;;;;;;;;;4910964;29;20380;-50
2023/03/03 19:19:15;;;;;;;124.05;44.85;;;;;;;;;;4910283;29;20306;-47
2023/03/03 19:21:42;;;;;;;117.90;42.33;;;;;;;;;;4910531;29;20036;-48
2023/03/03 19:24:26;;;;;;;117.88;43.83;;;;;;;;;;4910700;29;20030;-49
2023/03/03 19:26:57;;;;;;;121.90;43.03;;;;;;;;;;4910581;29;20132;-51
2023/03/03 19:29:26;;;;;;;112.60;41.50;;;;;;;;;;4910757;29;20111;-48
2023/03/03 19:32:12;;;;;;;108.85;41.10;;;;;;;;;;4910767;29;20016;-47
2023/03/03 19:34:42;;;;;;;106.95;39.60;;;;;;;;;;4910823;29;20032;-48
2023/03/03 19:37:28;;;;;;;123.00;41.88;;;;;;;;;;4910674;29;20028;-49
2023/03/03 19:40:02;;;;;;;113.95;40.72;;;;;;;;;;4945663;28;20041;-50
2023/03/03 19:42:48;;;;;;;113.63;39.58;;;;;;;;;;5010556;28;20030;-51
2023/03/03 19:45:16;;;;;;;117.97;42.88;;;;;;;;;;5010103;28;20083;-52
2023/03/03 19:47:47;;;;;;;111.03;41.70;;;;;;;;;;5010248;28;20025;-49
2023/03/03 19:50:43;;;;;;;106.90;40.35;;;;;;;;;;5010132;28;20022;-52
2023/03/03 19:53:29;;;;;;;112.55;40.08;;;;;;;;;;5009924;28;20050;-50
2023/03/03 19:56:01;;;;;;;101.60;38.67;;;;;;;;;;4958394;28;20065;-51
2023/03/03 19:58:26;;;;;;;109.90;37.92;;;;;;;;;;5007250;28;20037;-52
2023/03/03 20:00:58;;;;;;;112.80;40.40;;;;;;;;;;5006467;28;20044;-49
2023/03/03 20:03:37;;;;;;;122.75;40.30;;;;;;;;;;5007035;28;20033;-48
2023/03/03 20:06:09;;;;;;;124.88;41.15;;;;;;;;;;5007251;28;20026;-49
2023/03/03 20:08:44;;;;;;;116.18;41.75;;;;;;;;;;5007168;28;20025;-47
2023/03/03 20:11:17;;;;;;;115.47;40.80;;;;;;;;;;5007002;28;20046;-49
2023/03/03 20:14:14;;;;;;;114.30;41.05;;;;;;;;;;4948821;28;20635;-50
2023/03/03 20:16:40;;;;;;;106.78;38.00;;;;;;;;;;4947774;28;20431;-47
2023/03/03 20:19:22;;;;;;;120.28;40.58;;;;;;;;;;4947299;28;20612;-49
2023/03/03 20:21:58;;;;;;;122.45;43.08;;;;;;;;;;4947675;28;20431;-48
2023/03/03 20:24:30;;;;;;;116.95;40.05;;;;;;;;;;4947931;29;20050;-51
2023/03/03 20:26:58;;;;;;;122.57;43.13;;;;;;;;;;4948259;28;20371;-51
2023/03/03 20:29:49;;;;;;;102.72;38.92;;;;;;;;;;4932483;28;20122;-49
2023/03/03 20:32:24;;;;;;;114.75;40.00;;;;;;;;;;4920108;28;20618;-49
2023/03/03 20:35:07;;;;;;;123.00;41.50;;;;;;;;;;4977258;28;20030;-50
2023/03/03 20:37:53;;;;;;;104.00;39.53;;;;;;;;;;4985392;28;20096;-50
2023/03/03 20:40:18;;;;;;;105.45;39.75;;;;;;;;;;4948201;28;20458;-49
2023/03/03 20:42:46;;;;;;;114.30;42.42;;;;;;;;;;4947419;28;20134;-50
2023/03/03 20:45:15;;;;;;;124.73;42.37;;;;;;;;;;4930959;29;20027;-47
2023/03/03 20:47:59;;;;;;;111.07;41.58;;;;;;;;;;4947545;28;20283;-49
2023/03/03 20:50:31;;;;;;;115.43;42.40;;;;;;;;;;4947926;28;20020;-52
2023/03/03 20:53:16;;;;;;;118.50;42.03;;;;;;;;;;4947577;28;20086;-51
2023/03/03 20:55:53;;;;;;;116.97;41.13;;;;;;;;;;4931882;29;20027;-49
2023/03/03 20:58:21;;;;;;;102.53;39.13;;;;;;;;;;4947871;28;20027;-51
2023/03/03 21:01:15;;;;;;;105.50;37.10;;;;;;;;;;4928044;29;20020;-49
2023/03/03 21:03:41;;;;;;;100.00;37.38;;;;;;;;;;4939439;28;20034;-49
2023/03/03 21:06:14;;;;;;;104.15;37.60;;;;;;;;;;4937809;28;20693;-47
2023/03/03 21:08:39;;;;;;;105.05;37.35;;;;;;;;;;4986222;28;20354;-50
2023/03/03 21:11:06;;;;;;;107.10;38.95;;;;;;;;;;4969786;28;20034;-49
2023/03/03 21:13:43;;;;;;;110.30;38.40;;;;;;;;;;4986270;28;20162;-52
2023/03/03 21:16:15;;;;;;;102.78;38.28;;;;;;;;;;4986066;28;20065;-50
2023/03/03 21:18:45;;;;;;;100.90;36.33;;;;;;;;;;5024400;28;20217;-51
2023/03/03 21:21:10;;;;;;;109.00;39.97;;;;;;;;;;5024861;28;20024;-49
2023/03/03 21:23:36;;;;;;;102.22;38.83;;;;;;;;;;5025334;28;20124;-48
2023/03/03 21:26:01;;;;;;;99.13;37.28;;;;;;;;;;5025263;28;20820;-50
2023/03/03 21:28:28;;;;;;;108.63;39.70;;;;;;;;;;5025379;28;20025;-49
2023/03/03 21:31:04;;;;;;;108.40;38.28;;;;;;;;;;5025173;28;20110;-51
2023/03/03 21:33:45;;;;;;;104.65;40.22;;;;;;;;;;5025367;28;20033;-48
2023/03/03 21:36:12;;;;;;;98.97;37.97;;;;;;;;;;4992177;28;20818;-49
2023/03/03 21:38:38;;;;;;;103.20;39.63;;;;;;;;;;5026740;28;20124;-51
2023/03/03 21:41:04;;;;;;;103.07;38.50;;;;;;;;;;5027886;28;20481;-49
2023/03/03 21:43:37;;;;;;;105.70;40.03;;;;;;;;;;5027629;28;20030;-48
2023/03/03 21:46:02;;;;;;;104.65;36.85;;;;;;;;;;5027871;28;20029;-49
2023/03/03 21:48:28;;;;;;;105.65;38.13;;;;;;;;;;5027857;28;20025;-49
2023/03/03 21:50:53;;;;;;;93.65;36.38;;;;;;;;;;5025095;28;20048;-49
2023/03/03 21:53:19;;;;;;;93.47;33.70;;;;;;;;;;5026323;28;20053;-48
2023/03/03 21:55:47;;;;;;;97.82;35.65;;;;;;;;;;5026922;28;20108;-50
2023/03/03 21:58:13;;;;;;;92.40;35.20;;;;;;;;;;5026915;28;20021;-48
2023/03/03 22:00:39;;;;;;;93.35;35.80;;;;;;;;;;5026810;28;20033;-52
2023/03/03 22:03:04;;;;;;;84.57;33.80;;;;;;;;;;5024617;28;20557;-49
2023/03/03 22:05:29;;;;;;;100.18;35.22;;;;;;;;;;5027669;28;20188;-50
2023/03/03 22:07:55;;;;;;;86.00;34.22;;;;;;;;;;5027262;28;20009;-49
2023/03/03 22:10:20;;;;;;;81.97;32.17;;;;;;;;;;5027416;28;20028;-45
2023/03/03 22:12:46;;;;;;;94.28;33.90;;;;;;;;;;5027528;28;20033;-50
2023/03/03 22:15:11;;;;;;;83.68;33.58;;;;;;;;;;5030668;28;20100;-50
2023/03/03 22:17:36;;;;;;;95.82;34.85;;;;;;;;;;5031408;28;20021;-49
2023/03/03 22:20:02;;;;;;;84.88;32.38;;;;;;;;;;5030131;28;20021;-48
2023/03/03 22:22:27;;;;;;;81.95;32.20;;;;;;;;;;5030792;28;20041;-50
2023/03/03 22:24:52;;;;;;;85.78;32.63;;;;;;;;;;5031247;28;20017;-49
2023/03/03 22:27:18;;;;;;;81.15;30.80;;;;;;;;;;5029312;28;20022;-51
2023/03/03 22:29:43;;;;;;;79.80;32.15;;;;;;;;;;5030269;28;20530;-48
2023/03/03 22:32:08;;;;;;;78.88;30.52;;;;;;;;;;5030400;28;20069;-50
2023/03/03 22:34:34;;;;;;;80.90;31.63;;;;;;;;;;5030390;28;20120;-52
2023/03/03 22:36:59;;;;;;;78.70;31.23;;;;;;;;;;5030567;28;20077;-50
2023/03/03 22:39:24;;;;;;;79.45;31.33;;;;;;;;;;5031049;28;20067;-48
2023/03/03 22:41:49;;;;;;;70.13;29.77;;;;;;;;;;5030959;28;20102;-49
2023/03/03 22:44:15;;;;;;;75.72;31.80;;;;;;;;;;5029772;28;20033;-51
2023/03/03 22:46:40;;;;;;;79.97;29.90;;;;;;;;;;5011818;28;20040;-49
2023/03/03 22:49:05;;;;;;;76.05;29.13;;;;;;;;;;5030845;28;20037;-52
2023/03/03 22:51:31;;;;;;;76.43;30.02;;;;;;;;;;5030833;28;20475;-49
2023/03/03 22:53:56;;;;;;;83.35;31.38;;;;;;;;;;5030041;28;20485;-51
2023/03/03 22:56:21;;;;;;;77.75;32.03;;;;;;;;;;5030882;28;20653;-49
2023/03/03 22:58:48;;;;;;;76.95;31.27;;;;;;;;;;5030732;28;20092;-50
2023/03/03 23:01:13;;;;;;;80.03;32.42;;;;;;;;;;5028268;28;20524;-48
2023/03/03 23:03:38;;;;;;;82.57;31.25;;;;;;;;;;5030469;28;20048;-49
2023/03/03 23:06:04;;;;;;;75.80;29.25;;;;;;;;;;5030660;28;20061;-52
2023/03/03 23:08:29;;;;;;;80.95;30.20;;;;;;;;;;5030576;28;20024;-50
2023/03/03 23:10:54;;;;;;;73.05;28.55;;;;;;;;;;5030489;28;20049;-49
2023/03/03 23:13:20;;;;;;;76.45;29.67;;;;;;;;;;5030355;28;20022;-49
2023/03/03 23:15:45;;;;;;;76.20;29.02;;;;;;;;;;5044526;28;20033;-53
2023/03/03 23:18:10;;;;;;;69.57;28.90;;;;;;;;;;5030212;28;20083;-49
2023/03/03 23:20:36;;;;;;;68.88;28.40;;;;;;;;;;5028746;28;20444;-53
2023/03/03 23:23:01;;;;;;;75.72;29.00;;;;;;;;;;5029634;28;20030;-53
2023/03/03 23:25:27;;;;;;;73.90;27.88;;;;;;;;;;5028730;28;20025;-51
2023/03/03 23:27:53;;;;;;;77.43;28.80;;;;;;;;;;5029991;28;20032;-54
2023/03/03 23:30:19;;;;;;;74.18;27.45;;;;;;;;;;5030130;28;20022;-52
2023/03/03 23:32:45;;;;;;;70.93;28.08;;;;;;;;;;5029121;28;20021;-50
2023/03/03 23:35:11;;;;;;;65.72;26.63;;;;;;;;;;5029269;28;20377;-51
2023/03/03 23:37:36;;;;;;;78.47;29.13;;;;;;;;;;5029224;28;20029;-50
2023/03/03 23:40:02;;;;;;;75.50;28.17;;;;;;;;;;5029300;28;20025;-55
2023/03/03 23:42:29;;;;;;;68.95;27.15;;;;;;;;;;5029036;28;20120;-51
2023/03/03 23:44:54;;;;;;;69.00;28.30;;;;;;;;;;5028797;28;20029;-51
2023/03/03 23:47:19;;;;;;;76.13;26.58;;;;;;;;;;5029560;28;20026;-51
2023/03/03 23:49:45;;;;;;;67.30;26.95;;;;;;;;;;5030222;28;20014;-48
2023/03/03 23:52:10;;;;;;;64.05;25.08;;;;;;;;;;5028750;28;20378;-49
2023/03/03 23:54:36;;;;;;;74.65;28.50;;;;;;;;;;5028809;28;20048;-51
2023/03/03 23:57:01;;;;;;;72.47;28.10;;;;;;;;;;5026486;28;20465;-50
2023/03/03 23:59:26;;;;;;;75.97;28.50;;;;;;;;;;5028547;28;20033;-50
